sensor_id;sensor_type;location;lat;lon;timestamp;pressure;altitude;pressure_sealevel;temperature;humidity
52441;BME280;39611;46.062;8.950;2023-03-01T00:00:01;96795.47;;;2.09;87.64
52441;BME280;39611;46.062;8.950;2023-03-01T00:02:27;96795.28;;;2.36;86.83
52441;BME280;39611;46.062;8.950;2023-03-01T00:04:54;96795.19;;;2.49;86.30
52441;BME280;39611;46.062;8.950;2023-03-01T00:07:20;96794.91;;;2.32;86.55
52441;BME280;39611;46.062;8.950;2023-03-01T00:09:46;96806.94;;;2.33;86.14
52441;BME280;39611;46.062;8.950;2023-03-01T00:12:13;96803.44;;;2.21;86.02
52441;BME280;39611;46.062;8.950;2023-03-01T00:14:39;96799.81;;;2.22;86.02
52441;BME280;39611;46.062;8.950;2023-03-01T00:17:06;96796.44;;;2.15;86.36
52441;BME280;39611;46.062;8.950;2023-03-01T00:19:32;96799.03;;;2.15;86.76
52441;BME280;39611;46.062;8.950;2023-03-01T00:21:59;96799.03;;;2.15;87.22
52441;BME280;39611;46.062;8.950;2023-03-01T00:24:25;96797.03;;;2.17;87.03
52441;BME280;39611;46.062;8.950;2023-03-01T00:26:53;96800.22;;;2.19;86.98
52441;BME280;39611;46.062;8.950;2023-03-01T00:29:23;96797.72;;;2.31;85.76
52441;BME280;39611;46.062;8.950;2023-03-01T00:31:49;96800.81;;;2.21;86.87
52441;BME280;39611;46.062;8.950;2023-03-01T00:34:16;96791.94;;;2.29;86.29
52441;BME280;39611;46.062;8.950;2023-03-01T00:36:43;96797.44;;;2.14;86.84
52441;BME280;39611;46.062;8.950;2023-03-01T00:39:15;96798.25;;;2.14;87.30
52441;BME280;39611;46.062;8.950;2023-03-01T00:41:42;96785.78;;;2.16;87.06
52441;BME280;39611;46.062;8.950;2023-03-01T00:44:09;96787.38;;;2.17;86.91
52441;BME280;39611;46.062;8.950;2023-03-01T00:46:36;96776.41;;;2.09;87.44
52441;BME280;39611;46.062;8.950;2023-03-01T00:49:03;96774.81;;;2.08;87.41
52441;BME280;39611;46.062;8.950;2023-03-01T00:51:31;96765.47;;;1.93;87.52
52441;BME280;39611;46.062;8.950;2023-03-01T00:54:00;96761.97;;;2.06;87.59
52441;BME280;39611;46.062;8.950;2023-03-01T00:56:29;96760.25;;;1.93;87.91
52441;BME280;39611;46.062;8.950;2023-03-01T00:58:57;96762.59;;;2.02;87.70
52441;BME280;39611;46.062;8.950;2023-03-01T01:01:26;96760.22;;;2.00;87.39
52441;BME280;39611;46.062;8.950;2023-03-01T01:04:10;96752.63;;;1.92;86.85
52441;BME280;39611;46.062;8.950;2023-03-01T01:06:42;96750.06;;;1.85;87.47
52441;BME280;39611;46.062;8.950;2023-03-01T01:09:11;96746.09;;;1.76;88.07
52441;BME280;39611;46.062;8.950;2023-03-01T01:11:48;96742.09;;;1.73;88.91
52441;BME280;39611;46.062;8.950;2023-03-01T01:14:17;96743.13;;;1.72;88.89
52441;BME280;39611;46.062;8.950;2023-03-01T01:16:44;96741.41;;;1.91;87.92
52441;BME280;39611;46.062;8.950;2023-03-01T01:19:11;96744.31;;;1.77;87.24
52441;BME280;39611;46.062;8.950;2023-03-01T01:21:37;96740.34;;;1.67;87.93
52441;BME280;39611;46.062;8.950;2023-03-01T01:24:04;96738.41;;;1.56;89.45
52441;BME280;39611;46.062;8.950;2023-03-01T01:26:33;96728.34;;;1.60;89.67
52441;BME280;39611;46.062;8.950;2023-03-01T01:29:01;96720.69;;;1.65;89.66
52441;BME280;39611;46.062;8.950;2023-03-01T01:31:28;96712.63;;;1.73;89.24
52441;BME280;39611;46.062;8.950;2023-03-01T01:33:56;96714.88;;;1.94;87.96
52441;BME280;39611;46.062;8.950;2023-03-01T01:36:23;96705.72;;;1.85;87.55
52441;BME280;39611;46.062;8.950;2023-03-01T01:38:50;96704.69;;;1.86;87.66
52441;BME280;39611;46.062;8.950;2023-03-01T01:41:17;96696.16;;;1.79;87.74
52441;BME280;39611;46.062;8.950;2023-03-01T01:43:47;96696.34;;;1.78;88.30
52441;BME280;39611;46.062;8.950;2023-03-01T01:46:31;96698.50;;;1.87;88.23
52441;BME280;39611;46.062;8.950;2023-03-01T01:49:02;96699.97;;;1.77;87.59
52441;BME280;39611;46.062;8.950;2023-03-01T01:51:34;96691.50;;;1.81;87.27
52441;BME280;39611;46.062;8.950;2023-03-01T01:54:10;96690.19;;;1.65;88.43
52441;BME280;39611;46.062;8.950;2023-03-01T01:56:40;96688.00;;;1.69;88.10
52441;BME280;39611;46.062;8.950;2023-03-01T01:59:08;96687.25;;;1.55;88.74
52441;BME280;39611;46.062;8.950;2023-03-01T02:01:35;96679.56;;;1.67;88.51
52441;BME280;39611;46.062;8.950;2023-03-01T02:04:02;96674.53;;;1.72;87.82
52441;BME280;39611;46.062;8.950;2023-03-01T02:06:42;96672.22;;;1.57;87.52
52441;BME280;39611;46.062;8.950;2023-03-01T02:09:13;96665.44;;;1.49;88.73
52441;BME280;39611;46.062;8.950;2023-03-01T02:11:41;96664.72;;;1.67;88.69
52441;BME280;39611;46.062;8.950;2023-03-01T02:14:07;96658.88;;;1.72;87.72
52441;BME280;39611;46.062;8.950;2023-03-01T02:16:34;96657.69;;;1.68;87.50
52441;BME280;39611;46.062;8.950;2023-03-01T02:19:03;96653.34;;;1.62;87.17
52441;BME280;39611;46.062;8.950;2023-03-01T02:27:01;96653.09;;;1.31;88.83
52441;BME280;39611;46.062;8.950;2023-03-01T02:29:28;96646.38;;;1.49;88.63
52441;BME280;39611;46.062;8.950;2023-03-01T02:31:56;96643.34;;;1.52;88.71
52441;BME280;39611;46.062;8.950;2023-03-01T02:34:25;96646.72;;;1.59;88.04
52441;BME280;39611;46.062;8.950;2023-03-01T02:36:56;96639.00;;;1.71;87.35
52441;BME280;39611;46.062;8.950;2023-03-01T02:39:28;96642.03;;;1.68;87.00
52441;BME280;39611;46.062;8.950;2023-03-01T02:41:56;96637.94;;;1.53;87.26
52441;BME280;39611;46.062;8.950;2023-03-01T02:44:25;96636.94;;;1.55;87.79
52441;BME280;39611;46.062;8.950;2023-03-01T02:46:55;96635.91;;;1.56;87.87
52441;BME280;39611;46.062;8.950;2023-03-01T02:49:31;96640.56;;;1.53;88.12
52441;BME280;39611;46.062;8.950;2023-03-01T02:52:55;96633.28;;;1.56;87.49
52441;BME280;39611;46.062;8.950;2023-03-01T02:57:28;96623.25;;;1.59;87.45
52441;BME280;39611;46.062;8.950;2023-03-01T02:59:57;96621.72;;;1.51;87.89
52441;BME280;39611;46.062;8.950;2023-03-01T03:02:29;96619.00;;;1.65;88.37
52441;BME280;39611;46.062;8.950;2023-03-01T03:05:06;96611.66;;;1.80;87.18
52441;BME280;39611;46.062;8.950;2023-03-01T03:07:36;96611.94;;;1.72;87.41
52441;BME280;39611;46.062;8.950;2023-03-01T03:10:06;96611.97;;;1.65;87.84
52441;BME280;39611;46.062;8.950;2023-03-01T03:12:33;96597.81;;;1.55;88.11
52441;BME280;39611;46.062;8.950;2023-03-01T03:15:00;96599.25;;;1.50;87.55
52441;BME280;39611;46.062;8.950;2023-03-01T03:17:26;96599.72;;;1.41;87.67
52441;BME280;39611;46.062;8.950;2023-03-01T03:19:52;96598.94;;;1.40;88.07
52441;BME280;39611;46.062;8.950;2023-03-01T03:22:19;96594.63;;;1.52;87.06
52441;BME280;39611;46.062;8.950;2023-03-01T03:24:45;96593.81;;;1.52;87.33
52441;BME280;39611;46.062;8.950;2023-03-01T03:27:12;96597.22;;;1.52;87.41
52441;BME280;39611;46.062;8.950;2023-03-01T03:29:38;96605.31;;;1.44;87.35
52441;BME280;39611;46.062;8.950;2023-03-01T03:32:04;96590.56;;;1.31;87.87
52441;BME280;39611;46.062;8.950;2023-03-01T03:34:31;96594.81;;;1.26;88.04
52441;BME280;39611;46.062;8.950;2023-03-01T03:36:57;96594.63;;;1.21;88.36
52441;BME280;39611;46.062;8.950;2023-03-01T03:39:26;96593.78;;;1.27;89.00
52441;BME280;39611;46.062;8.950;2023-03-01T03:41:53;96587.28;;;1.43;87.94
52441;BME280;39611;46.062;8.950;2023-03-01T03:44:21;96585.84;;;1.47;87.62
52441;BME280;39611;46.062;8.950;2023-03-01T03:46:47;96577.97;;;1.53;87.12
52441;BME280;39611;46.062;8.950;2023-03-01T03:49:14;96575.94;;;1.56;87.06
52441;BME280;39611;46.062;8.950;2023-03-01T03:51:40;96570.81;;;1.42;87.70
52441;BME280;39611;46.062;8.950;2023-03-01T03:54:06;96571.41;;;1.44;87.41
52441;BME280;39611;46.062;8.950;2023-03-01T03:56:33;96569.34;;;1.28;87.58
52441;BME280;39611;46.062;8.950;2023-03-01T03:59:00;96564.75;;;1.23;88.21
52441;BME280;39611;46.062;8.950;2023-03-01T04:01:26;96565.09;;;1.34;87.31
52441;BME280;39611;46.062;8.950;2023-03-01T04:03:52;96562.31;;;1.28;87.06
52441;BME280;39611;46.062;8.950;2023-03-01T04:06:20;96557.44;;;1.39;86.94
52441;BME280;39611;46.062;8.950;2023-03-01T04:08:47;96556.25;;;1.35;87.14
52441;BME280;39611;46.062;8.950;2023-03-01T04:11:17;96556.25;;;1.35;87.37
52441;BME280;39611;46.062;8.950;2023-03-01T04:13:54;96560.50;;;1.29;86.19
52441;BME280;39611;46.062;8.950;2023-03-01T04:16:21;96559.91;;;1.02;87.73
52441;BME280;39611;46.062;8.950;2023-03-01T04:18:48;96555.84;;;1.06;88.26
52441;BME280;39611;46.062;8.950;2023-03-01T04:21:14;96545.84;;;1.03;88.90
52441;BME280;39611;46.062;8.950;2023-03-01T04:23:41;96547.53;;;1.22;88.18
52441;BME280;39611;46.062;8.950;2023-03-01T04:26:09;96540.69;;;1.28;87.26
52441;BME280;39611;46.062;8.950;2023-03-01T04:28:40;96541.66;;;1.27;86.62
52441;BME280;39611;46.062;8.950;2023-03-01T04:31:17;96532.53;;;1.18;87.61
52441;BME280;39611;46.062;8.950;2023-03-01T04:33:45;96542.50;;;1.27;87.39
52441;BME280;39611;46.062;8.950;2023-03-01T04:36:14;96543.75;;;1.18;87.42
52441;BME280;39611;46.062;8.950;2023-03-01T04:38:42;96545.56;;;1.18;87.30
52441;BME280;39611;46.062;8.950;2023-03-01T04:41:10;96544.88;;;1.29;87.23
52441;BME280;39611;46.062;8.950;2023-03-01T04:43:37;96543.94;;;1.48;85.98
52441;BME280;39611;46.062;8.950;2023-03-01T04:46:07;96534.41;;;1.36;86.75
52441;BME280;39611;46.062;8.950;2023-03-01T04:48:40;96536.94;;;1.42;86.43
52441;BME280;39611;46.062;8.950;2023-03-01T04:51:07;96540.84;;;1.33;86.93
52441;BME280;39611;46.062;8.950;2023-03-01T04:53:35;96541.63;;;1.34;86.46
52441;BME280;39611;46.062;8.950;2023-03-01T04:56:04;96545.66;;;1.29;85.84
52441;BME280;39611;46.062;8.950;2023-03-01T04:58:31;96544.78;;;1.11;87.00
52441;BME280;39611;46.062;8.950;2023-03-01T05:00:57;96554.97;;;1.19;86.94
52441;BME280;39611;46.062;8.950;2023-03-01T05:03:24;96551.81;;;1.10;87.16
52441;BME280;39611;46.062;8.950;2023-03-01T05:05:52;96547.84;;;1.01;87.38
52441;BME280;39611;46.062;8.950;2023-03-01T05:08:19;96529.41;;;1.09;87.78
52441;BME280;39611;46.062;8.950;2023-03-01T05:10:51;96540.09;;;1.26;87.03
52441;BME280;39611;46.062;8.950;2023-03-01T05:13:20;96543.38;;;1.15;86.29
52441;BME280;39611;46.062;8.950;2023-03-01T05:15:54;96542.63;;;1.07;87.04
52441;BME280;39611;46.062;8.950;2023-03-01T05:18:22;96549.22;;;1.10;86.82
52441;BME280;39611;46.062;8.950;2023-03-01T05:20:53;96535.25;;;0.98;87.66
52441;BME280;39611;46.062;8.950;2023-03-01T05:23:23;96541.44;;;1.03;87.71
52441;BME280;39611;46.062;8.950;2023-03-01T05:25:50;96538.78;;;1.10;87.20
52441;BME280;39611;46.062;8.950;2023-03-01T05:28:20;96538.25;;;1.01;87.68
52441;BME280;39611;46.062;8.950;2023-03-01T05:30:46;96540.94;;;1.20;87.63
52441;BME280;39611;46.062;8.950;2023-03-01T05:33:13;96548.16;;;1.18;86.78
52441;BME280;39611;46.062;8.950;2023-03-01T05:35:41;96550.06;;;1.04;87.22
52441;BME280;39611;46.062;8.950;2023-03-01T05:38:12;96548.88;;;1.00;87.81
52441;BME280;39611;46.062;8.950;2023-03-01T05:40:43;96546.31;;;0.93;87.67
52441;BME280;39611;46.062;8.950;2023-03-01T05:43:10;96546.72;;;0.90;87.33
52441;BME280;39611;46.062;8.950;2023-03-01T05:45:39;96548.72;;;0.88;87.57
52441;BME280;39611;46.062;8.950;2023-03-01T05:48:08;96547.50;;;0.97;87.02
52441;BME280;39611;46.062;8.950;2023-03-01T05:50:43;96539.50;;;0.92;87.53
52441;BME280;39611;46.062;8.950;2023-03-01T05:53:16;96547.69;;;0.96;87.46
52441;BME280;39611;46.062;8.950;2023-03-01T05:55:43;96545.41;;;1.06;87.28
52441;BME280;39611;46.062;8.950;2023-03-01T05:58:13;96531.88;;;0.97;87.45
52441;BME280;39611;46.062;8.950;2023-03-01T06:00:41;96536.81;;;1.05;87.33
52441;BME280;39611;46.062;8.950;2023-03-01T06:03:09;96537.84;;;1.04;86.80
52441;BME280;39611;46.062;8.950;2023-03-01T06:05:36;96533.69;;;0.97;87.32
52441;BME280;39611;46.062;8.950;2023-03-01T06:08:03;96530.03;;;1.04;87.14
52441;BME280;39611;46.062;8.950;2023-03-01T06:10:29;96533.44;;;0.98;86.83
52441;BME280;39611;46.062;8.950;2023-03-01T06:12:56;96532.13;;;0.89;87.15
52441;BME280;39611;46.062;8.950;2023-03-01T06:15:24;96538.91;;;0.90;87.39
52441;BME280;39611;46.062;8.950;2023-03-01T06:17:50;96536.91;;;0.92;87.50
52441;BME280;39611;46.062;8.950;2023-03-01T06:20:21;96533.06;;;1.01;87.31
52441;BME280;39611;46.062;8.950;2023-03-01T06:22:49;96541.91;;;0.94;87.49
52441;BME280;39611;46.062;8.950;2023-03-01T06:25:18;96535.38;;;0.78;87.69
52441;BME280;39611;46.062;8.950;2023-03-01T06:27:45;96545.50;;;0.93;87.12
52441;BME280;39611;46.062;8.950;2023-03-01T06:30:13;96545.75;;;0.84;87.21
52441;BME280;39611;46.062;8.950;2023-03-01T06:32:41;96549.50;;;0.95;87.58
52441;BME280;39611;46.062;8.950;2023-03-01T06:35:12;96547.06;;;1.00;85.89
52441;BME280;39611;46.062;8.950;2023-03-01T06:37:40;96550.72;;;0.93;86.87
52441;BME280;39611;46.062;8.950;2023-03-01T06:40:07;96567.13;;;1.00;86.51
52441;BME280;39611;46.062;8.950;2023-03-01T06:42:39;96564.31;;;1.01;87.03
52441;BME280;39611;46.062;8.950;2023-03-01T06:45:06;96574.31;;;1.04;87.02
52441;BME280;39611;46.062;8.950;2023-03-01T06:47:33;96579.34;;;0.99;87.09
52441;BME280;39611;46.062;8.950;2023-03-01T06:50:01;96583.16;;;0.97;87.10
52441;BME280;39611;46.062;8.950;2023-03-01T06:52:28;96584.97;;;0.96;87.20
52441;BME280;39611;46.062;8.950;2023-03-01T06:54:55;96580.34;;;0.98;88.05
52441;BME280;39611;46.062;8.950;2023-03-01T06:57:22;96588.28;;;1.10;87.27
52441;BME280;39611;46.062;8.950;2023-03-01T06:59:48;96590.63;;;1.25;86.76
52441;BME280;39611;46.062;8.950;2023-03-01T07:02:15;96583.50;;;1.39;86.82
52441;BME280;39611;46.062;8.950;2023-03-01T07:04:41;96589.16;;;1.29;87.21
52441;BME280;39611;46.062;8.950;2023-03-01T07:07:08;96589.31;;;1.41;86.82
52441;BME280;39611;46.062;8.950;2023-03-01T07:09:35;96581.69;;;1.39;87.34
52441;BME280;39611;46.062;8.950;2023-03-01T07:12:01;96575.63;;;1.45;87.41
52441;BME280;39611;46.062;8.950;2023-03-01T07:14:28;96569.13;;;1.55;87.53
52441;BME280;39611;46.062;8.950;2023-03-01T07:16:54;96568.44;;;1.66;86.85
52441;BME280;39611;46.062;8.950;2023-03-01T07:19:21;96566.50;;;1.61;87.70
52441;BME280;39611;46.062;8.950;2023-03-01T07:21:48;96571.31;;;1.58;87.40
52441;BME280;39611;46.062;8.950;2023-03-01T07:24:14;96570.47;;;1.64;87.72
52441;BME280;39611;46.062;8.950;2023-03-01T07:26:41;96564.44;;;1.63;87.81
52441;BME280;39611;46.062;8.950;2023-03-01T07:29:09;96562.97;;;1.74;87.04
52441;BME280;39611;46.062;8.950;2023-03-01T07:31:36;96561.34;;;1.98;86.17
52441;BME280;39611;46.062;8.950;2023-03-01T07:34:03;96562.63;;;2.07;84.67
52441;BME280;39611;46.062;8.950;2023-03-01T07:36:30;96564.25;;;2.08;84.86
52441;BME280;39611;46.062;8.950;2023-03-01T07:38:57;96566.00;;;1.89;86.37
52441;BME280;39611;46.062;8.950;2023-03-01T07:41:24;96559.00;;;1.90;86.68
52441;BME280;39611;46.062;8.950;2023-03-01T07:43:50;96547.78;;;2.08;86.23
52441;BME280;39611;46.062;8.950;2023-03-01T07:46:17;96550.56;;;2.31;83.96
52441;BME280;39611;46.062;8.950;2023-03-01T07:48:45;96555.09;;;2.17;84.94
52441;BME280;39611;46.062;8.950;2023-03-01T07:51:11;96549.47;;;2.21;85.42
52441;BME280;39611;46.062;8.950;2023-03-01T07:53:38;96545.53;;;2.30;84.80
52441;BME280;39611;46.062;8.950;2023-03-01T07:56:07;96540.41;;;2.23;85.22
52441;BME280;39611;46.062;8.950;2023-03-01T07:58:35;96539.69;;;2.16;85.64
52441;BME280;39611;46.062;8.950;2023-03-01T08:01:06;96535.19;;;2.23;85.23
52441;BME280;39611;46.062;8.950;2023-03-01T08:03:34;96544.16;;;2.27;85.68
52441;BME280;39611;46.062;8.950;2023-03-01T08:06:02;96545.25;;;2.38;85.70
52441;BME280;39611;46.062;8.950;2023-03-01T08:08:30;96552.94;;;2.33;85.71
52441;BME280;39611;46.062;8.950;2023-03-01T08:11:00;96547.50;;;2.34;85.32
52441;BME280;39611;46.062;8.950;2023-03-01T08:13:28;96541.03;;;2.37;85.19
52441;BME280;39611;46.062;8.950;2023-03-01T08:16:00;96554.66;;;2.57;84.65
52441;BME280;39611;46.062;8.950;2023-03-01T08:18:26;96545.50;;;2.67;84.43
52441;BME280;39611;46.062;8.950;2023-03-01T08:20:53;96549.63;;;2.74;84.24
52441;BME280;39611;46.062;8.950;2023-03-01T08:23:19;96546.28;;;2.67;82.62
52441;BME280;39611;46.062;8.950;2023-03-01T08:25:46;96547.91;;;2.68;82.27
52441;BME280;39611;46.062;8.950;2023-03-01T08:28:12;96552.81;;;2.76;82.04
52441;BME280;39611;46.062;8.950;2023-03-01T08:30:39;96546.16;;;2.92;82.66
52441;BME280;39611;46.062;8.950;2023-03-01T08:33:05;96547.09;;;2.98;82.00
52441;BME280;39611;46.062;8.950;2023-03-01T08:35:32;96538.31;;;2.92;82.17
52441;BME280;39611;46.062;8.950;2023-03-01T08:37:58;96540.16;;;2.92;81.42
52441;BME280;39611;46.062;8.950;2023-03-01T08:40:24;96534.53;;;3.06;81.97
52441;BME280;39611;46.062;8.950;2023-03-01T08:42:51;96540.31;;;3.09;80.68
52441;BME280;39611;46.062;8.950;2023-03-01T08:45:17;96526.13;;;3.16;80.72
52441;BME280;39611;46.062;8.950;2023-03-01T08:47:44;96522.97;;;3.26;80.71
52441;BME280;39611;46.062;8.950;2023-03-01T08:50:11;96530.38;;;3.41;80.92
52441;BME280;39611;46.062;8.950;2023-03-01T08:52:38;96525.16;;;3.41;81.19
52441;BME280;39611;46.062;8.950;2023-03-01T08:55:04;96517.66;;;3.56;80.97
52441;BME280;39611;46.062;8.950;2023-03-01T08:57:31;96524.03;;;3.48;79.68
52441;BME280;39611;46.062;8.950;2023-03-01T08:59:57;96517.88;;;3.55;79.42
52441;BME280;39611;46.062;8.950;2023-03-01T09:02:24;96517.09;;;3.66;80.41
52441;BME280;39611;46.062;8.950;2023-03-01T09:04:50;96514.94;;;3.75;79.97
52441;BME280;39611;46.062;8.950;2023-03-01T09:07:17;96506.84;;;3.88;79.40
52441;BME280;39611;46.062;8.950;2023-03-01T09:09:43;96513.22;;;3.92;78.53
52441;BME280;39611;46.062;8.950;2023-03-01T09:12:10;96500.13;;;3.92;77.65
52441;BME280;39611;46.062;8.950;2023-03-01T09:14:36;96499.00;;;4.00;78.75
52441;BME280;39611;46.062;8.950;2023-03-01T09:17:04;96486.91;;;4.10;78.82
52441;BME280;39611;46.062;8.950;2023-03-01T09:19:31;96480.84;;;4.22;79.29
52441;BME280;39611;46.062;8.950;2023-03-01T09:21:57;96478.22;;;4.22;77.76
52441;BME280;39611;46.062;8.950;2023-03-01T09:24:24;96476.03;;;4.30;78.59
52441;BME280;39611;46.062;8.950;2023-03-01T09:26:55;96473.50;;;4.35;78.15
52441;BME280;39611;46.062;8.950;2023-03-01T09:29:23;96477.47;;;4.38;78.68
52441;BME280;39611;46.062;8.950;2023-03-01T09:31:49;96479.34;;;4.26;79.46
52441;BME280;39611;46.062;8.950;2023-03-01T09:34:16;96478.28;;;4.38;80.08
52441;BME280;39611;46.062;8.950;2023-03-01T09:36:48;96474.50;;;4.46;79.82
52441;BME280;39611;46.062;8.950;2023-03-01T09:39:14;96472.34;;;4.43;80.29
52441;BME280;39611;46.062;8.950;2023-03-01T09:41:53;96467.75;;;4.50;80.23
52441;BME280;39611;46.062;8.950;2023-03-01T09:44:31;96468.50;;;4.63;80.91
52441;BME280;39611;46.062;8.950;2023-03-01T09:47:01;96472.31;;;4.72;80.95
52441;BME280;39611;46.062;8.950;2023-03-01T09:49:31;96469.50;;;4.73;80.08
52441;BME280;39611;46.062;8.950;2023-03-01T09:54:55;96453.47;;;4.87;80.46
52441;BME280;39611;46.062;8.950;2023-03-01T09:57:53;96445.38;;;4.88;80.42
52441;BME280;39611;46.062;8.950;2023-03-01T10:00:36;96448.63;;;4.95;79.59
52441;BME280;39611;46.062;8.950;2023-03-01T10:06:06;96435.66;;;5.06;78.90
52441;BME280;39611;46.062;8.950;2023-03-01T10:08:43;96424.41;;;5.05;79.50
52441;BME280;39611;46.062;8.950;2023-03-01T10:11:25;96418.22;;;5.11;79.91
52441;BME280;39611;46.062;8.950;2023-03-01T10:16:48;96406.47;;;5.14;79.33
52441;BME280;39611;46.062;8.950;2023-03-01T10:19:41;96402.41;;;5.06;79.19
52441;BME280;39611;46.062;8.950;2023-03-01T10:22:31;96397.06;;;5.18;78.66
52441;BME280;39611;46.062;8.950;2023-03-01T10:25:00;96395.78;;;5.20;78.16
52441;BME280;39611;46.062;8.950;2023-03-01T10:30:32;96389.91;;;5.30;77.99
52441;BME280;39611;46.062;8.950;2023-03-01T10:33:01;96393.00;;;5.27;78.17
52441;BME280;39611;46.062;8.950;2023-03-01T10:35:31;96390.38;;;5.27;77.98
52441;BME280;39611;46.062;8.950;2023-03-01T10:38:07;96389.91;;;5.30;78.02
52441;BME280;39611;46.062;8.950;2023-03-01T10:40:36;96385.28;;;5.37;77.32
52441;BME280;39611;46.062;8.950;2023-03-01T10:43:04;96381.19;;;5.46;77.50
52441;BME280;39611;46.062;8.950;2023-03-01T10:45:37;96378.97;;;5.55;78.01
52441;BME280;39611;46.062;8.950;2023-03-01T10:48:05;96377.19;;;5.61;76.97
52441;BME280;39611;46.062;8.950;2023-03-01T10:50:32;96364.16;;;5.66;77.04
52441;BME280;39611;46.062;8.950;2023-03-01T10:53:04;96360.03;;;5.75;75.97
52441;BME280;39611;46.062;8.950;2023-03-01T11:00:55;96351.66;;;5.95;75.71
52441;BME280;39611;46.062;8.950;2023-03-01T11:03:26;96345.91;;;5.98;75.11
52441;BME280;39611;46.062;8.950;2023-03-01T11:06:21;96334.66;;;6.03;74.49
52441;BME280;39611;46.062;8.950;2023-03-01T11:08:49;96328.13;;;6.05;73.72
52441;BME280;39611;46.062;8.950;2023-03-01T11:14:06;96302.69;;;6.11;75.04
52441;BME280;39611;46.062;8.950;2023-03-01T11:17:05;96294.22;;;6.04;72.42
52441;BME280;39611;46.062;8.950;2023-03-01T11:19:32;96285.09;;;6.11;73.85
52441;BME280;39611;46.062;8.950;2023-03-01T11:22:03;96280.78;;;6.27;74.18
52441;BME280;39611;46.062;8.950;2023-03-01T11:24:39;96264.19;;;6.22;72.10
52441;BME280;39611;46.062;8.950;2023-03-01T11:27:16;96258.44;;;6.25;72.58
52441;BME280;39611;46.062;8.950;2023-03-01T11:29:46;96252.91;;;6.21;70.54
52441;BME280;39611;46.062;8.950;2023-03-01T11:32:19;96249.22;;;6.22;70.84
52441;BME280;39611;46.062;8.950;2023-03-01T11:37:30;96233.53;;;6.32;70.51
52441;BME280;39611;46.062;8.950;2023-03-01T11:40:15;96221.22;;;6.38;68.45
52441;BME280;39611;46.062;8.950;2023-03-01T11:45:12;96222.06;;;6.44;70.14
52441;BME280;39611;46.062;8.950;2023-03-01T11:55:52;96214.41;;;6.85;70.65
52441;BME280;39611;46.062;8.950;2023-03-01T12:05:20;96210.09;;;7.16;67.46
52441;BME280;39611;46.062;8.950;2023-03-01T12:08:14;96199.34;;;7.22;69.64
52441;BME280;39611;46.062;8.950;2023-03-01T12:11:10;96189.09;;;7.26;68.89
52441;BME280;39611;46.062;8.950;2023-03-01T12:16:31;96188.81;;;7.22;65.26
52441;BME280;39611;46.062;8.950;2023-03-01T12:30:24;96183.38;;;7.50;66.89
52441;BME280;39611;46.062;8.950;2023-03-01T12:33:17;96169.94;;;7.46;65.23
52441;BME280;39611;46.062;8.950;2023-03-01T12:38:41;96174.16;;;7.52;67.61
52441;BME280;39611;46.062;8.950;2023-03-01T12:41:23;96177.06;;;7.51;65.79
52441;BME280;39611;46.062;8.950;2023-03-01T12:44:26;96175.75;;;7.53;66.61
52441;BME280;39611;46.062;8.950;2023-03-01T12:49:45;96165.25;;;7.58;66.59
52441;BME280;39611;46.062;8.950;2023-03-01T12:52:15;96170.50;;;7.58;66.02
52441;BME280;39611;46.062;8.950;2023-03-01T12:54:44;96171.84;;;7.66;66.58
52441;BME280;39611;46.062;8.950;2023-03-01T12:57:24;96175.78;;;7.69;65.78
52441;BME280;39611;46.062;8.950;2023-03-01T13:00:35;96169.47;;;7.75;66.66
52441;BME280;39611;46.062;8.950;2023-03-01T13:03:14;96167.63;;;7.75;66.83
52441;BME280;39611;46.062;8.950;2023-03-01T13:06:08;96160.00;;;7.79;67.20
52441;BME280;39611;46.062;8.950;2023-03-01T13:08:44;96150.00;;;7.76;66.67
52441;BME280;39611;46.062;8.950;2023-03-01T13:11:18;96146.84;;;7.74;66.27
52441;BME280;39611;46.062;8.950;2023-03-01T13:13:45;96142.59;;;7.78;65.44
52441;BME280;39611;46.062;8.950;2023-03-01T13:16:39;96149.72;;;7.67;63.83
52441;BME280;39611;46.062;8.950;2023-03-01T13:21:42;96138.91;;;7.63;63.08
52441;BME280;39611;46.062;8.950;2023-03-01T13:29:47;96123.38;;;7.62;65.38
52441;BME280;39611;46.062;8.950;2023-03-01T13:32:25;96114.44;;;7.63;66.38
52441;BME280;39611;46.062;8.950;2023-03-01T13:37:44;96110.75;;;7.64;64.82
52441;BME280;39611;46.062;8.950;2023-03-01T13:42:48;96097.34;;;7.76;64.82
52441;BME280;39611;46.062;8.950;2023-03-01T13:45:39;96108.13;;;7.79;65.33
52441;BME280;39611;46.062;8.950;2023-03-01T13:48:27;96101.28;;;7.78;64.63
52441;BME280;39611;46.062;8.950;2023-03-01T13:51:00;96111.53;;;7.85;65.76
52441;BME280;39611;46.062;8.950;2023-03-01T13:53:34;96114.72;;;7.87;64.05
52441;BME280;39611;46.062;8.950;2023-03-01T13:56:03;96113.94;;;7.92;63.21
52441;BME280;39611;46.062;8.950;2023-03-01T13:58:45;96119.97;;;7.87;62.91
52441;BME280;39611;46.062;8.950;2023-03-01T14:01:38;96125.25;;;7.92;64.37
52441;BME280;39611;46.062;8.950;2023-03-01T14:04:29;96126.28;;;7.91;63.12
52441;BME280;39611;46.062;8.950;2023-03-01T14:09:44;96139.72;;;7.90;62.06
52441;BME280;39611;46.062;8.950;2023-03-01T14:14:58;96147.88;;;7.98;60.02
52441;BME280;39611;46.062;8.950;2023-03-01T14:17:41;96156.31;;;7.90;60.08
52441;BME280;39611;46.062;8.950;2023-03-01T14:20:22;96165.28;;;7.89;60.13
52441;BME280;39611;46.062;8.950;2023-03-01T14:22:53;96173.97;;;7.90;59.94
52441;BME280;39611;46.062;8.950;2023-03-01T14:25:29;96175.00;;;7.94;61.11
52441;BME280;39611;46.062;8.950;2023-03-01T14:31:00;96189.50;;;7.86;61.65
52441;BME280;39611;46.062;8.950;2023-03-01T14:33:30;96193.94;;;7.75;62.14
52441;BME280;39611;46.062;8.950;2023-03-01T14:36:02;96203.19;;;7.83;62.84
52441;BME280;39611;46.062;8.950;2023-03-01T14:41:27;96206.34;;;7.90;65.34
52441;BME280;39611;46.062;8.950;2023-03-01T14:43:58;96209.78;;;7.91;65.30
52441;BME280;39611;46.062;8.950;2023-03-01T14:46:37;96212.66;;;7.84;63.24
52441;BME280;39611;46.062;8.950;2023-03-01T14:49:17;96214.50;;;7.88;63.93
52441;BME280;39611;46.062;8.950;2023-03-01T14:52:06;96214.78;;;7.87;63.77
52441;BME280;39611;46.062;8.950;2023-03-01T14:54:52;96209.50;;;7.82;64.36
52441;BME280;39611;46.062;8.950;2023-03-01T14:57:24;96216.34;;;7.78;63.92
52441;BME280;39611;46.062;8.950;2023-03-01T14:59:54;96222.13;;;7.75;63.09